00h59 EDT


 

Suivi/Infos de l'aéroport


-ou-


 

Suivi des vols en temps réelNetjets Aviation #839 ✈ 26-04-2013 ✈ KPBI - KIAD

FlightAware Photo Cow
EJA839
Netjets Aviation "Execjet" (tous les vols) · Columbus, OH
Palm Beach Intl ( – info)
West Palm Beach, FL
Int'l de Washington-Dulles ( – info)
Washington, DC
08h54 EDT
11h13 EDT
Prévu: 08h30 EDT
Prévu: 10h30 EDT
Durée: 2 heures 19 minutes
vendredi, 26 avril 2013
Statut A atterri il y a 51 semaines. (journal de vol & graphique)
Avion Cessna Citation V (biréacteur) (C560/Q – photos)
Vitesse Plan de vol: 415 kts (graphique)
Altitude Plan de vol: 40.000 Pieds (graphique)
Distance En ligne droite 1.387 km    Prévue 1.588 km    Parcourue 1.498 km
Route TBIRD1 SHEDS ORL CRG J51 SAV J207 RDU FAK BARIN1 (Décoder)
JOURNAL DE L'ACTIVITE
Vous voulez une recherche complète sur l'historique de EJA839 depuis 1998? Achetez maintenant. Recevez-le dans l'heure.
Date Avion Provenance Destination Départ Arrivée Durée
18-04-2014 C560/LOhio State University ()Toledo Express () 16h58 EDT 17h22 EDT 0:24
18-04-2014 C560Putnam County ()Ohio State University () 15h10 EDT 15h49 EDT 0:39
18-04-2014 C560/LNashville Intl ()Putnam County () 12h06 CDT 13h48 EDT 0:42
18-04-2014 C560/LSmith Reynolds ()Nashville Intl () 10h47 EDT 10h55 CDT 1:08
18-04-2014 C560/LMc Ghee Tyson ()Smith Reynolds () 08h03 EDT 08h46 EDT 0:43
17-04-2014 C560/LRichmond Intl ()Mc Ghee Tyson () 16h25 EDT 17h23 EDT 0:58
17-04-2014 C560/LWestchester County ()Richmond Intl () 14h57 EDT 16h01 EDT 1:04
17-04-2014 C560/LHilton Head ()Westchester County () 11h50 EDT 13h38 EDT 1:48
15-04-2014 C560/LGrand Strand ()Hilton Head () 00h16 EDT 00h46 EDT 0:30
14-04-2014 C560/LHilton Head ()Grand Strand () 20h25 EDT 21h01 EDT 0:36
14-04-2014 C560/LPalm Beach Intl ()Hilton Head () 18h11 EDT 19h16 EDT (?) 1:05
13-04-2014 C560/LAugusta Regional ()Palm Beach Intl () 20h30 EDT 21h51 EDT 1:20
13-04-2014 C560/LInt'l de Pittsburgh ()Augusta Regional () 18h00 EDT 19h18 EDT 1:18
12-04-2014 C560/LInt'l de Cleveland-Hopkins ()Int'l de Pittsburgh () 22h01 EDT 22h26 EDT 0:25
12-04-2014 C560/LInt'l O'Hare de Chicago ()Int'l de Cleveland-Hopkins () 19h51 CDT 21h42 EDT 0:51
12-04-2014 C560/LChicago Executive ()Int'l O'Hare de Chicago () 13h57 CDT 14h45 CDT 0:47
12-04-2014 C560/LAugusta Regional ()Chicago Executive () 00h20 EDT 01h16 CDT 1:56
11-04-2014 C560/LInt'l de Miami ()Augusta Regional () 21h42 EDT 23h00 EDT 1:18
11-04-2014 C560/LVero Beach Muni ()Int'l de Miami () 18h29 EDT 19h08 EDT 0:39
11-04-2014 C560/LInt'l Thurgood Marshall de Baltimore-Washington ()Vero Beach Muni () 15h15 EDT 17h20 EDT 2:05
11-04-2014 C560/LDekalb-Peachtree ()Int'l Thurgood Marshall de Baltimore-Washington () 12h41 EDT 14h07 EDT 1:26
10-04-2014 C560/LSarasota/Bradenton Intl ()Dekalb-Peachtree () 14h22 EDT 15h56 EDT 1:33
10-04-2014 C560/LSpringfield Arpt ()Sarasota/Bradenton Intl () 09h10 CDT 12h16 EDT 2:06
10-04-2014 C560/LEppley d'Omaha ()Springfield Arpt () 07h11 CDT 08h00 CDT 0:48
09-04-2014 C560/LPiedmont Triad Intl ()Eppley d'Omaha () 14h40 EDT 16h20 CDT 2:40
09-04-2014 C560/LColumbia Metropolitan ()Piedmont Triad Intl () 13h18 EDT 13h51 EDT (?) 0:33
09-04-2014 C560/LAugusta Regional ()Columbia Metropolitan () 06h22 EDT 06h45 EDT 0:23
08-04-2014 C560Eppley d'Omaha ()Augusta Regional () 13h46 CDT 17h08 EDT 2:21
08-04-2014 C560/LRichard Lloyd Jones Jr ()Eppley d'Omaha () 11h19 CDT 12h27 CDT 1:08
08-04-2014 C560/LNaples Muni ()Richard Lloyd Jones Jr () 08h22 EDT 10h07 CDT 2:45
08-04-2014 C560/LOcala Intl ()Naples Muni () 06h01 EDT 06h48 EDT 0:47
07-04-2014 C560/LOcean Reef Club ()Ocala Intl () 09h24 EDT 10h12 EDT 0:48
07-04-2014 C560/LFort Lauderdale Executive ()Ocean Reef Club () 08h19 EDT 08h43 EDT 0:24
06-04-2014 C560/LExecutive ()Fort Lauderdale Executive () 19h06 EDT 19h48 EDT 0:42
06-04-2014 C560/LHuntington Muni ()Executive () 14h24 EDT 16h36 EDT 2:12
06-04-2014 C560/LFort Wayne Intl ()Huntington Muni () 12h13 EDT 12h17 EDT 0:04
05-04-2014 C560/LInt'l Newark Liberty ()Fort Wayne Intl () 19h28 EDT 21h06 EDT 1:38
Les membres inscrits (l'inscription est gratuite et facile!) voient 4 months d'historique. S'inscrire